createdAt,value
2019-01-17T00:00:52.702Z,21.33
2019-01-17T00:05:50.528Z,12.30
2019-01-17T00:10:54.214Z,26.87
2019-01-17T00:16:10.455Z,13.30
2019-01-17T00:21:11.184Z,12.90
2019-01-17T00:26:08.987Z,11.77
2019-01-17T00:31:24.957Z,16.83
2019-01-17T00:36:25.312Z,18.90
2019-01-17T00:41:25.860Z,18.60
2019-01-17T00:51:43.532Z,15.30
2019-01-17T00:56:58.013Z,13.53
2019-01-17T01:02:01.586Z,18.47
2019-01-17T01:07:18.383Z,24.53
2019-01-17T01:12:25.845Z,23.03
2019-01-17T01:17:36.069Z,19.87
2019-01-17T01:22:37.113Z,25.13
2019-01-17T01:27:53.384Z,21.07
2019-01-17T01:38:26.842Z,8.17
2019-01-17T01:43:24.641Z,13.97
2019-01-17T01:48:22.462Z,21.03
2019-01-17T01:53:18.329Z,23.33
2019-01-17T01:58:14.235Z,19.07
2019-01-17T02:03:10.289Z,18.20
2019-01-17T02:08:06.284Z,13.03
2019-01-17T02:13:02.693Z,20.53
2019-01-17T02:17:58.557Z,16.07
2019-01-17T02:22:54.449Z,24.03
2019-01-17T02:27:52.457Z,5.27
2019-01-17T02:32:48.351Z,14.17
2019-01-17T02:37:44.246Z,10.20
2019-01-17T02:42:40.137Z,10.77
2019-01-17T02:47:36.042Z,10.73
2019-01-17T02:52:31.934Z,18.97
2019-01-17T02:57:27.945Z,10.93
2019-01-17T03:02:23.870Z,18.57
2019-01-17T03:07:19.766Z,18.13
2019-01-17T03:12:15.674Z,10.00
2019-01-17T03:17:11.567Z,4.73
2019-01-17T03:22:07.478Z,5.50
2019-01-17T03:27:03.484Z,5.07
2019-01-17T03:31:59.418Z,5.67
2019-01-17T03:36:55.402Z,2.30
2019-01-17T03:41:51.307Z,3.53
2019-01-17T03:46:47.230Z,4.43
2019-01-17T03:51:43.129Z,6.07
2019-01-17T03:56:39.021Z,7.53
2019-01-17T04:01:34.919Z,12.10
2019-01-17T04:06:30.824Z,9.10
2019-01-17T04:11:26.741Z,14.20
2019-01-17T04:16:22.647Z,11.87
2019-01-17T04:21:18.530Z,15.27
2019-01-17T04:26:14.422Z,11.70
2019-01-17T04:31:10.417Z,12.27
2019-01-17T04:36:06.314Z,7.57
2019-01-17T04:41:02.329Z,15.37
2019-01-17T04:45:58.222Z,12.57
2019-01-17T04:50:54.117Z,8.37
2019-01-17T04:55:50.114Z,8.10
2019-01-17T05:00:45.995Z,6.40
2019-01-17T05:05:41.894Z,6.80
2019-01-17T05:10:37.787Z,6.33
2019-01-17T05:15:33.681Z,6.83
2019-01-17T05:20:29.575Z,10.27
2019-01-17T05:25:25.469Z,6.73
2019-01-17T05:30:21.374Z,9.17
2019-01-17T05:35:17.238Z,8.33
2019-01-17T05:40:15.436Z,14.93
2019-01-17T05:45:11.638Z,17.03
2019-01-17T05:50:10.832Z,5.93
2019-01-17T05:55:07.074Z,10.43
2019-01-17T06:00:06.840Z,13.70
2019-01-17T06:05:04.878Z,21.20
2019-01-17T06:10:00.771Z,12.17
2019-01-17T06:14:56.715Z,15.70
2019-01-17T06:19:53.309Z,9.10
2019-01-17T06:24:49.206Z,24.10
2019-01-17T06:29:45.105Z,15.33
2019-01-17T06:34:41.003Z,15.37
2019-01-17T06:39:36.898Z,21.80
2019-01-17T06:44:32.794Z,17.60
2019-01-17T06:49:30.184Z,12.73
2019-01-17T06:54:26.010Z,10.90
2019-01-17T06:59:21.899Z,19.70
2019-01-17T07:04:17.823Z,16.60
2019-01-17T07:09:13.718Z,19.43
2019-01-17T07:14:09.762Z,21.67
2019-01-17T07:19:08.836Z,16.00
2019-01-17T07:24:04.929Z,22.27
2019-01-17T07:29:00.822Z,18.07
2019-01-17T07:33:56.721Z,16.23
2019-01-17T07:38:52.615Z,20.53
2019-01-17T07:43:48.505Z,24.97
2019-01-17T07:48:46.482Z,14.10
2019-01-17T07:53:42.479Z,26.07
2019-01-17T07:58:38.470Z,29.87
2019-01-17T08:03:34.392Z,27.50
2019-01-17T08:08:30.381Z,26.63
2019-01-17T08:13:26.283Z,31.30
2019-01-17T08:18:22.210Z,32.53
2019-01-17T08:23:18.108Z,30.63
2019-01-17T08:28:14.003Z,32.00
2019-01-17T08:33:09.878Z,26.80
2019-01-17T08:38:05.871Z,30.03
2019-01-17T08:43:01.771Z,22.57
2019-01-17T08:47:57.684Z,34.13
2019-01-17T08:52:53.581Z,26.07
2019-01-17T08:57:49.469Z,27.87
2019-01-17T09:02:45.397Z,30.10
2019-01-17T09:07:41.407Z,34.50
2019-01-17T09:12:37.294Z,47.90
2019-01-17T09:17:33.189Z,23.73
2019-01-17T09:22:29.083Z,27.90
2019-01-17T09:27:24.977Z,27.67
2019-01-17T09:32:20.868Z,19.27
2019-01-17T09:37:16.768Z,44.50
2019-01-17T09:42:12.675Z,30.80
2019-01-17T09:47:08.593Z,40.13
2019-01-17T09:52:04.601Z,18.57
2019-01-17T09:57:00.499Z,26.53
2019-01-17T10:01:56.393Z,20.93
2019-01-17T10:06:52.313Z,31.77
2019-01-17T10:11:48.217Z,15.47
2019-01-17T10:16:46.716Z,19.23
2019-01-17T10:22:09.395Z,18.30
2019-01-17T10:27:12.306Z,17.83
2019-01-17T10:32:35.214Z,23.30
2019-01-17T10:37:57.063Z,22.97
2019-01-17T10:42:59.460Z,24.37
2019-01-17T10:48:25.342Z,31.80
2019-01-17T10:53:41.551Z,25.33
2019-01-17T10:58:44.026Z,17.07
2019-01-17T11:04:18.933Z,19.87
2019-01-17T11:09:35.555Z,13.23
2019-01-17T11:14:44.442Z,10.57
2019-01-17T11:20:02.891Z,17.20
2019-01-17T11:25:32.552Z,11.37
2019-01-17T11:30:53.331Z,15.87
2019-01-17T11:36:09.651Z,7.30
2019-01-17T11:41:20.924Z,15.37
2019-01-17T11:46:29.628Z,12.00
2019-01-17T11:51:38.338Z,9.03
2019-01-17T11:56:47.184Z,4.87
2019-01-17T12:01:52.886Z,11.50
2019-01-17T12:06:48.808Z,4.60
2019-01-17T12:11:44.750Z,3.43
2019-01-17T12:16:40.620Z,7.00
2019-01-17T12:21:36.919Z,6.80
2019-01-17T12:26:32.868Z,6.03
2019-01-17T12:31:28.814Z,3.30
2019-01-17T12:36:24.811Z,5.53
2019-01-17T12:41:20.747Z,6.40
2019-01-17T12:46:16.728Z,11.10
2019-01-17T12:51:12.635Z,5.77
2019-01-17T12:56:08.705Z,6.40
2019-01-17T13:01:16.074Z,13.50
2019-01-17T13:06:13.972Z,3.63
2019-01-17T13:11:09.932Z,3.83
2019-01-17T13:16:05.883Z,7.30
2019-01-17T13:21:02.226Z,5.37
2019-01-17T13:25:58.169Z,4.67
2019-01-17T13:30:54.131Z,5.50
2019-01-17T13:35:53.121Z,3.67
2019-01-17T13:40:49.060Z,5.00
2019-01-17T13:45:45.098Z,5.97
2019-01-17T13:50:41.001Z,4.50
2019-01-17T13:55:36.991Z,4.70
2019-01-17T14:00:33.042Z,4.97
2019-01-17T14:05:28.957Z,2.60
2019-01-17T14:10:24.983Z,4.93
2019-01-17T14:15:26.440Z,3.87
2019-01-17T14:20:22.392Z,4.60
2019-01-17T14:25:18.441Z,2.60
2019-01-17T14:30:20.175Z,2.30
2019-01-17T14:35:19.415Z,4.87
2019-01-17T14:40:15.938Z,5.40
2019-01-17T14:45:14.941Z,5.10
2019-01-17T14:50:20.128Z,4.50
2019-01-17T14:55:19.247Z,7.83
2019-01-17T15:00:20.976Z,5.03
2019-01-17T15:05:17.199Z,6.23
2019-01-17T15:10:22.573Z,6.00
2019-01-17T15:15:18.876Z,6.80
2019-01-17T15:20:19.886Z,2.27
2019-01-17T15:25:17.548Z,7.03
2019-01-17T15:30:19.700Z,6.97
2019-01-17T15:35:19.980Z,3.67
2019-01-17T15:40:21.682Z,8.27
2019-01-17T15:45:20.657Z,1.30
2019-01-17T15:50:20.126Z,2.93
2019-01-17T15:55:23.931Z,3.30
2019-01-17T16:00:29.866Z,3.20
2019-01-17T16:05:27.825Z,3.70
2019-01-17T16:10:24.617Z,2.00
2019-01-17T16:15:26.857Z,2.03
2019-01-17T16:20:23.968Z,0.50
2019-01-17T16:25:20.970Z,3.13
2019-01-17T16:30:26.183Z,2.60
2019-01-17T16:35:25.194Z,3.23
2019-01-17T16:40:22.437Z,3.20
2019-01-17T16:45:21.514Z,5.63
2019-01-17T16:50:22.195Z,11.53
2019-01-17T16:55:19.172Z,3.27
2019-01-17T17:00:20.131Z,1.47
2019-01-17T17:05:16.982Z,8.03
2019-01-17T17:10:14.818Z,0.60
2019-01-17T17:15:11.766Z,19.50
2019-01-17T17:20:15.141Z,2.80
2019-01-17T17:25:11.935Z,10.43
2019-01-17T17:30:14.596Z,7.00
2019-01-17T17:35:11.837Z,8.30
2019-01-17T17:40:12.169Z,2.03
2019-01-17T17:45:11.825Z,8.50
2019-01-17T17:50:14.937Z,1.23
2019-01-17T17:55:40.238Z,2.27
2019-01-17T18:00:41.122Z,13.73
2019-01-17T18:05:37.997Z,2.20
2019-01-17T18:10:34.880Z,4.30
2019-01-17T18:15:32.563Z,7.30
2019-01-17T18:20:31.624Z,4.23
2019-01-17T18:25:31.379Z,7.10
2019-01-17T18:30:29.232Z,2.00
2019-01-17T18:35:28.773Z,7.43
2019-01-17T18:40:26.609Z,1.50
2019-01-17T18:45:25.020Z,8.00
2019-01-17T18:50:24.809Z,8.70
2019-01-17T18:55:21.617Z,7.47
2019-01-17T19:00:22.263Z,2.97
2019-01-17T19:05:19.977Z,3.80
2019-01-17T19:10:18.769Z,17.77
2019-01-17T19:15:20.575Z,4.77
2019-01-17T19:20:19.072Z,19.73
2019-01-17T19:25:16.818Z,7.23
2019-01-17T19:30:22.294Z,5.17
2019-01-17T19:35:20.108Z,8.93
2019-01-17T19:40:23.676Z,6.07
2019-01-17T19:45:24.753Z,8.93
2019-01-17T19:50:30.049Z,4.03
2019-01-17T19:55:28.457Z,7.63
2019-01-17T20:00:25.839Z,11.73
2019-01-17T20:05:27.447Z,3.87
2019-01-17T20:10:29.645Z,11.07
2019-01-17T20:15:27.484Z,8.43
2019-01-17T20:20:31.874Z,5.27
2019-01-17T20:25:26.721Z,3.67
2019-01-17T20:30:30.745Z,9.77
2019-01-17T20:35:28.786Z,3.20
2019-01-17T20:40:26.749Z,8.53
2019-01-17T20:45:23.595Z,5.63
2019-01-17T20:50:26.900Z,5.20
2019-01-17T20:55:25.310Z,8.50
2019-01-17T21:00:47.096Z,1.70
2019-01-17T21:05:44.960Z,18.43
2019-01-17T21:10:41.819Z,19.27
2019-01-17T21:15:38.764Z,15.27
2019-01-17T21:20:40.700Z,4.50
2019-01-17T21:25:40.295Z,4.70
2019-01-17T21:30:42.233Z,5.53
2019-01-17T21:35:41.690Z,3.00
2019-01-17T21:40:39.047Z,10.70
2019-01-17T21:45:36.239Z,2.00
2019-01-17T21:50:36.236Z,1.40
2019-01-17T21:55:35.616Z,7.40
2019-01-17T22:00:33.658Z,1.60
2019-01-17T22:05:32.636Z,4.67
2019-01-17T22:10:29.562Z,1.60
2019-01-17T22:15:31.020Z,2.50
2019-01-17T22:20:30.883Z,2.83
2019-01-17T22:25:29.562Z,1.87
2019-01-17T22:30:30.841Z,1.73
2019-01-17T22:35:27.587Z,2.73
2019-01-17T22:40:24.429Z,4.50
2019-01-17T22:45:33.952Z,0.57
2019-01-17T22:50:31.710Z,2.40
2019-01-17T22:55:29.472Z,12.63
2019-01-17T23:00:42.979Z,1.40
2019-01-17T23:05:39.678Z,1.60
2019-01-17T23:10:36.498Z,3.03
2019-01-17T23:15:33.392Z,3.60
2019-01-17T23:20:31.471Z,1.33
2019-01-17T23:25:28.199Z,2.10
2019-01-17T23:30:25.470Z,3.80
2019-01-17T23:35:22.238Z,2.30
2019-01-17T23:40:19.592Z,1.70
2019-01-17T23:45:16.362Z,2.70
2019-01-17T23:50:13.657Z,3.93
2019-01-17T23:55:13.144Z,3.27
